Time;durP1;ratioP1;P1;durP2;ratioP2;P2;SDS_P1;SDS_P2;PMS_P1;PMS_P2;Temp;Humidity;BMP_temperature;BMP_pressure;BME280_temperature;BME280_humidity;BME280_pressure;Samples;Min_cycle;Max_cycle;Signal;HPM_P1;HPM_P2
2021/12/10 00:01:59;;;;;;;5.10;2.28;;;22.30;33.80;;;;;;5091154;27;20079;-66
2021/12/10 00:04:33;;;;;;;2.08;1.95;;;22.30;33.80;;;;;;5082931;27;20073;-65
2021/12/10 00:07:17;;;;;;;1.80;1.70;;;22.30;33.80;;;;;;5104692;28;20083;-65
2021/12/10 00:09:51;;;;;;;1.98;1.77;;;22.30;33.80;;;;;;5104718;28;20051;-65
2021/12/10 00:12:25;;;;;;;1.83;1.73;;;22.30;33.80;;;;;;5090161;27;20137;-66
2021/12/10 00:14:53;;;;;;;3.28;1.77;;;22.30;33.80;;;;;;5086828;27;20435;-65
2021/12/10 00:17:21;;;;;;;2.65;2.40;;;22.30;33.80;;;;;;5109000;27;20129;-65
2021/12/10 00:19:56;;;;;;;2.10;2.00;;;22.30;33.80;;;;;;5108997;27;20090;-65
2021/12/10 00:22:36;;;;;;;1.80;1.70;;;22.30;33.80;;;;;;5096519;27;20101;-65
2021/12/10 00:25:07;;;;;;;2.58;1.77;;;22.30;33.80;;;;;;5090159;27;20047;-65
2021/12/10 00:27:35;;;;;;;2.67;1.90;;;22.30;33.80;;;;;;5108021;27;20500;-65
2021/12/10 00:30:15;;;;;;;1.92;1.77;;;22.30;33.90;;;;;;5108291;27;20082;-65
2021/12/10 00:32:54;;;;;;;2.30;2.10;;;22.30;33.80;;;;;;5098359;27;20089;-66
2021/12/10 00:35:25;;;;;;;1.60;1.50;;;22.30;33.80;;;;;;5091598;27;20351;-65
2021/12/10 00:37:53;;;;;;;2.00;1.77;;;22.30;33.80;;;;;;5108607;27;20042;-65
2021/12/10 00:40:22;;;;;;;1.75;1.65;;;22.30;33.80;;;;;;5107554;27;20086;-65
2021/12/10 00:42:50;;;;;;;2.03;1.85;;;22.30;33.80;;;;;;5090224;27;20135;-66
2021/12/10 00:45:19;;;;;;;1.50;1.40;;;22.30;33.80;;;;;;5107578;27;20112;-66
2021/12/10 00:47:47;;;;;;;1.50;1.40;;;22.30;33.80;;;;;;5108094;27;20059;-65
2021/12/10 00:50:22;;;;;;;1.85;1.60;;;22.30;33.80;;;;;;5107836;27;20091;-66
2021/12/10 00:52:51;;;;;;;3.88;1.92;;;22.30;33.80;;;;;;5097160;27;20957;-66
2021/12/10 00:55:18;;;;;;;1.92;1.80;;;22.30;33.80;;;;;;5108104;27;20079;-66
2021/12/10 00:57:45;;;;;;;1.95;1.85;;;22.30;33.80;;;;;;5107513;27;20055;-66
2021/12/10 01:00:28;;;;;;;2.70;1.83;;;22.30;33.80;;;;;;5107810;27;20082;-67
2021/12/10 01:02:56;;;;;;;3.33;1.63;;;22.30;33.70;;;;;;5086344;27;20051;-66
2021/12/10 01:05:23;;;;;;;1.90;1.80;;;22.30;33.70;;;;;;5107667;27;20131;-66
2021/12/10 01:07:50;;;;;;;1.55;1.45;;;22.30;33.70;;;;;;5108127;27;20567;-66
2021/12/10 01:10:25;;;;;;;2.40;1.58;;;22.30;33.70;;;;;;5108179;27;20042;-66
2021/12/10 01:12:57;;;;;;;2.55;1.90;;;22.30;33.70;;;;;;5097447;27;20074;-66
2021/12/10 01:15:52;;;;;;;1.90;1.80;;;22.30;33.70;;;;;;5072944;27;20133;-66
2021/12/10 01:24:19;;;;;;;1.75;1.65;;;22.20;33.70;;;;;;5100972;27;20078;-66
2021/12/10 01:26:56;;;;;;;1.98;1.88;;;22.20;33.80;;;;;;5107573;27;20051;-66
2021/12/10 01:29:29;;;;;;;2.22;2.05;;;22.20;33.70;;;;;;5106957;27;20075;-66
2021/12/10 01:31:58;;;;;;;2.00;1.90;;;22.20;33.70;;;;;;5100198;27;20134;-66
2021/12/10 01:34:25;;;;;;;2.00;1.70;;;22.20;33.70;;;;;;5104785;27;20485;-66
2021/12/10 01:36:53;;;;;;;1.70;1.55;;;22.20;33.70;;;;;;5107020;27;20144;-66
2021/12/10 01:39:24;;;;;;;1.60;1.50;;;22.20;33.70;;;;;;5106433;27;20946;-65
2021/12/10 01:42:03;;;;;;;1.55;1.45;;;22.20;33.70;;;;;;5103626;27;20051;-66
2021/12/10 01:44:36;;;;;;;2.05;1.95;;;22.20;33.70;;;;;;5095093;27;20130;-66
2021/12/10 01:47:06;;;;;;;1.92;1.83;;;22.20;33.80;;;;;;5106673;27;20058;-66
2021/12/10 01:49:36;;;;;;;1.48;1.38;;;22.20;33.70;;;;;;5089335;27;20105;-66
2021/12/10 01:52:05;;;;;;;1.83;1.70;;;22.20;33.70;;;;;;5097340;27;20083;-66
2021/12/10 01:54:37;;;;;;;1.80;1.70;;;22.20;33.70;;;;;;5083407;28;20081;-65
2021/12/10 01:57:04;;;;;;;1.70;1.60;;;22.20;33.70;;;;;;5085797;28;20082;-66
2021/12/10 01:59:34;;;;;;;1.90;1.70;;;22.20;33.70;;;;;;5086110;28;20058;-66
2021/12/10 02:02:08;;;;;;;2.03;1.92;;;22.20;33.70;;;;;;5101335;27;20161;-66
2021/12/10 02:04:37;;;;;;;1.63;1.52;;;22.20;33.70;;;;;;5102671;27;20081;-66
2021/12/10 02:07:06;;;;;;;1.90;1.70;;;22.20;33.70;;;;;;5071067;27;20074;-65
2021/12/10 02:09:34;;;;;;;1.73;1.50;;;22.20;33.70;;;;;;5107429;27;20135;-65
2021/12/10 02:12:02;;;;;;;2.00;1.80;;;22.20;33.70;;;;;;5092406;27;20133;-65
2021/12/10 02:14:30;;;;;;;2.00;1.75;;;22.20;33.80;;;;;;5098098;27;20102;-66
2021/12/10 02:16:59;;;;;;;1.63;1.52;;;22.20;33.80;;;;;;5087545;27;20469;-66
2021/12/10 02:19:27;;;;;;;1.73;1.63;;;22.20;33.80;;;;;;5106389;27;20583;-67
2021/12/10 02:21:56;;;;;;;1.42;1.33;;;22.20;33.70;;;;;;5093478;27;20147;-66
2021/12/10 02:24:24;;;;;;;1.58;1.40;;;22.20;33.70;;;;;;5099821;27;20078;-65
2021/12/10 02:26:55;;;;;;;1.35;1.23;;;22.20;33.70;;;;;;5106579;27;20138;-65
2021/12/10 02:29:25;;;;;;;1.70;1.60;;;22.20;33.80;;;;;;5106095;27;20170;-66
2021/12/10 02:31:54;;;;;;;1.55;1.45;;;22.20;33.80;;;;;;5098779;27;20051;-66
2021/12/10 02:34:22;;;;;;;1.60;1.50;;;22.10;34.30;;;;;;5088589;27;20138;-65
2021/12/10 02:36:50;;;;;;;1.80;1.70;;;22.20;33.70;;;;;;5084591;28;20511;-65
2021/12/10 02:39:21;;;;;;;1.77;1.67;;;22.20;33.80;;;;;;5085434;28;20047;-65
2021/12/10 02:41:49;;;;;;;1.60;1.50;;;22.20;33.70;;;;;;5085848;27;20297;-65
2021/12/10 02:44:25;;;;;;;1.60;1.50;;;22.20;33.70;;;;;;5077724;27;20116;-65
2021/12/10 02:46:54;;;;;;;1.90;1.80;;;22.20;33.70;;;;;;5105624;27;20093;-67
2021/12/10 02:49:22;;;;;;;1.90;1.70;;;22.20;33.70;;;;;;5105443;27;20051;-67
2021/12/10 02:51:50;;;;;;;1.80;1.67;;;22.20;33.70;;;;;;5098739;27;20132;-67
2021/12/10 02:54:32;;;;;;;2.03;1.88;;;22.20;33.60;;;;;;5101397;27;20146;-66
2021/12/10 02:57:05;;;;;;;1.33;1.33;;;22.20;33.70;;;;;;5105522;27;20756;-66
2021/12/10 02:59:33;;;;;;;2.10;1.90;;;22.20;33.60;;;;;;5104737;27;20129;-67
2021/12/10 03:02:01;;;;;;;1.77;1.67;;;22.20;33.70;;;;;;5098410;27;20083;-66
2021/12/10 03:04:29;;;;;;;2.00;1.80;;;22.20;33.70;;;;;;5085418;27;20058;-66
2021/12/10 03:06:58;;;;;;;2.38;2.17;;;22.10;33.60;;;;;;5106234;27;20525;-66
2021/12/10 03:09:28;;;;;;;1.75;1.65;;;22.20;33.70;;;;;;5104958;27;20047;-66
2021/12/10 03:11:58;;;;;;;1.88;1.75;;;22.10;33.60;;;;;;5094732;27;20055;-66
2021/12/10 03:14:29;;;;;;;1.67;1.58;;;22.20;33.60;;;;;;5100458;27;20488;-66
2021/12/10 03:17:02;;;;;;;3.20;2.15;;;22.10;33.60;;;;;;5105566;27;20142;-66
2021/12/10 03:19:29;;;;;;;2.60;1.83;;;22.10;34.20;;;;;;5104853;27;20078;-66
2021/12/10 03:21:57;;;;;;;4.40;1.65;;;22.10;33.60;;;;;;5093841;27;20083;-66
2021/12/10 03:24:26;;;;;;;1.67;1.58;;;22.10;33.60;;;;;;5067689;28;20071;-66
2021/12/10 03:26:57;;;;;;;2.45;1.67;;;22.10;33.60;;;;;;5084915;28;20079;-66
2021/12/10 03:29:26;;;;;;;1.95;1.85;;;22.10;33.60;;;;;;5084799;28;20082;-64
2021/12/10 03:31:55;;;;;;;1.95;1.85;;;22.10;33.60;;;;;;5082166;27;20107;-66
2021/12/10 03:34:23;;;;;;;1.80;1.70;;;22.10;33.60;;;;;;5066634;28;20051;-66
2021/12/10 03:36:52;;;;;;;1.92;1.73;;;22.10;33.60;;;;;;5073354;28;20058;-66
2021/12/10 03:39:23;;;;;;;1.63;1.52;;;22.10;33.60;;;;;;5069124;28;20109;-66
2021/12/10 03:41:50;;;;;;;;;;;22.10;33.60;;;;;;5084990;27;20768;-66
2021/12/10 03:44:18;;;;;;;1.60;1.50;;;22.10;33.60;;;;;;5101473;27;19934;-66
2021/12/10 03:46:46;;;;;;;2.40;1.70;;;22.10;33.60;;;;;;5104955;28;20585;-65
2021/12/10 03:49:14;;;;;;;1.58;1.48;;;22.10;33.60;;;;;;5103342;27;20073;-65
2021/12/10 03:51:42;;;;;;;2.28;2.05;;;22.10;33.60;;;;;;5100088;27;20083;-65
2021/12/10 03:54:11;;;;;;;1.30;1.25;;;22.10;33.60;;;;;;5098419;28;20051;-65
2021/12/10 03:56:39;;;;;;;2.25;2.08;;;22.10;33.60;;;;;;5086514;28;20812;-65
2021/12/10 03:59:12;;;;;;;1.73;1.63;;;22.10;33.60;;;;;;5092022;28;20105;-65
2021/12/10 04:01:42;;;;;;;1.50;1.40;;;22.10;33.60;;;;;;5079846;28;20555;-65
2021/12/10 04:04:15;;;;;;;1.90;1.80;;;22.10;33.60;;;;;;5108668;28;20082;-65
2021/12/10 04:06:42;;;;;;;1.60;1.50;;;22.10;33.60;;;;;;5104897;28;20093;-65
2021/12/10 04:09:10;;;;;;;2.00;1.90;;;22.10;33.60;;;;;;5104435;28;20059;-65
2021/12/10 04:11:38;;;;;;;1.65;1.55;;;22.10;33.70;;;;;;5100520;27;20055;-65
2021/12/10 04:14:05;;;;;;;1.58;1.48;;;22.10;33.70;;;;;;5097325;28;20933;-67
2021/12/10 04:16:34;;;;;;;1.45;1.33;;;22.10;33.70;;;;;;5104241;28;20134;-65
2021/12/10 04:19:03;;;;;;;1.42;1.33;;;22.10;33.70;;;;;;5087992;28;20137;-67
2021/12/10 04:21:30;;;;;;;1.83;1.73;;;22.10;33.70;;;;;;5067047;28;20134;-65
2021/12/10 04:23:58;;;;;;;1.58;1.45;;;22.10;33.70;;;;;;5076628;28;20143;-66
2021/12/10 04:26:27;;;;;;;2.10;1.95;;;22.10;33.70;;;;;;5048598;28;20105;-67
2021/12/10 04:28:54;;;;;;;1.88;1.77;;;22.10;33.60;;;;;;5063330;28;20138;-66
2021/12/10 04:31:22;;;;;;;1.80;1.58;;;22.10;33.70;;;;;;5075374;28;20491;-67
2021/12/10 04:33:49;;;;;;;1.73;1.60;;;22.00;33.60;;;;;;5088405;28;20051;-65
2021/12/10 04:36:17;;;;;;;1.58;1.40;;;22.00;33.60;;;;;;5104035;28;20079;-65
2021/12/10 04:38:44;;;;;;;1.73;1.63;;;22.10;33.60;;;;;;5105446;28;21215;-65
2021/12/10 04:41:12;;;;;;;2.60;1.48;;;22.10;33.70;;;;;;5090174;27;20071;-65
2021/12/10 04:43:41;;;;;;;1.67;1.58;;;22.10;33.60;;;;;;5081009;28;20099;-65
2021/12/10 04:46:09;;;;;;;1.67;1.57;;;22.10;33.60;;;;;;5078825;28;20113;-65
2021/12/10 04:49:01;;;;;;;1.90;1.63;;;22.10;33.60;;;;;;5086335;28;20370;-64
2021/12/10 04:51:32;;;;;;;2.10;1.90;;;22.10;33.60;;;;;;5087102;28;20070;-65
2021/12/10 04:54:01;;;;;;;1.52;1.42;;;22.10;33.60;;;;;;5080632;28;20132;-65
2021/12/10 04:56:29;;;;;;;1.60;1.50;;;22.00;33.50;;;;;;5090593;28;20051;-64
2021/12/10 04:58:58;;;;;;;2.65;1.85;;;22.00;33.60;;;;;;5071723;28;20480;-65
2021/12/10 05:01:25;;;;;;;1.58;1.40;;;22.00;33.60;;;;;;5077178;27;20631;-65
2021/12/10 05:03:53;;;;;;;1.52;1.42;;;22.00;33.60;;;;;;5090154;27;20052;-65
2021/12/10 05:06:21;;;;;;;2.33;1.58;;;22.10;33.60;;;;;;5085782;28;20142;-65
2021/12/10 05:08:48;;;;;;;1.55;1.45;;;22.00;33.60;;;;;;5078794;27;20055;-66
2021/12/10 05:11:16;;;;;;;1.63;1.52;;;22.00;33.60;;;;;;5084909;28;20052;-65
2021/12/10 05:13:46;;;;;;;2.13;1.45;;;22.00;33.60;;;;;;5100850;27;20073;-65
2021/12/10 05:16:15;;;;;;;1.60;1.50;;;22.00;33.60;;;;;;5089122;27;20051;-65
2021/12/10 05:18:46;;;;;;;1.50;1.40;;;22.00;33.60;;;;;;5107091;27;20826;-65
2021/12/10 05:21:15;;;;;;;1.67;1.58;;;22.00;33.60;;;;;;5104893;27;20168;-65
2021/12/10 05:23:42;;;;;;;1.80;1.70;;;22.00;33.60;;;;;;5084104;27;20500;-64
2021/12/10 05:26:09;;;;;;;1.50;1.40;;;22.00;33.60;;;;;;5085066;28;20512;-65
2021/12/10 05:28:37;;;;;;;1.55;1.45;;;22.00;33.60;;;;;;5068326;28;20090;-65
2021/12/10 05:31:05;;;;;;;2.08;1.58;;;22.00;33.60;;;;;;5067162;27;20052;-65
2021/12/10 05:33:32;;;;;;;1.60;1.50;;;22.00;33.60;;;;;;5092938;27;20064;-64
2021/12/10 05:36:01;;;;;;;1.70;1.60;;;22.00;33.60;;;;;;5080087;27;20087;-67
2021/12/10 05:38:31;;;;;;;1.98;1.63;;;22.00;33.60;;;;;;5073396;28;20087;-67
2021/12/10 05:41:00;;;;;;;1.70;1.60;;;22.00;33.60;;;;;;5083049;28;20130;-67
2021/12/10 05:43:28;;;;;;;1.60;1.50;;;22.00;33.60;;;;;;5083756;27;20055;-65
2021/12/10 05:45:55;;;;;;;1.90;1.63;;;22.00;33.60;;;;;;5086437;28;20080;-65
2021/12/10 05:48:23;;;;;;;1.73;1.58;;;22.00;33.60;;;;;;5084889;28;20058;-65
2021/12/10 05:50:52;;;;;;;2.65;1.60;;;22.00;33.60;;;;;;5084480;27;20517;-64
2021/12/10 05:53:19;;;;;;;1.55;1.45;;;21.90;33.60;;;;;;5078976;27;20083;-65
2021/12/10 05:55:47;;;;;;;1.58;1.48;;;21.90;33.60;;;;;;5073949;28;20055;-64
2021/12/10 05:58:15;;;;;;;1.35;1.25;;;21.90;33.60;;;;;;5084998;28;20055;-65
2021/12/10 06:00:50;;;;;;;1.73;1.63;;;22.00;33.70;;;;;;5080398;28;20707;-65
2021/12/10 06:03:18;;;;;;;2.10;1.88;;;21.90;33.60;;;;;;5075531;27;20050;-65
2021/12/10 06:05:46;;;;;;;2.47;2.10;;;22.00;33.60;;;;;;5081178;27;20128;-64
2021/12/10 06:08:15;;;;;;;2.63;2.42;;;21.90;33.40;;;;;;5056529;28;20407;-65
2021/12/10 06:10:43;;;;;;;2.13;1.92;;;21.90;33.30;;;;;;5081664;27;20488;-64
2021/12/10 06:13:11;;;;;;;2.55;2.35;;;21.90;33.30;;;;;;5072724;27;20070;-65
2021/12/10 06:15:39;;;;;;;2.40;2.20;;;22.00;33.20;;;;;;5081528;28;20093;-65
2021/12/10 06:18:07;;;;;;;2.50;2.03;;;22.00;33.20;;;;;;5064168;28;20552;-65
2021/12/10 06:20:39;;;;;;;2.67;2.47;;;22.00;33.20;;;;;;5078029;28;20055;-64
2021/12/10 06:23:07;;;;;;;2.50;2.30;;;22.00;33.00;;;;;;5060230;27;20051;-63
2021/12/10 06:25:35;;;;;;;4.68;2.15;;;22.10;33.00;;;;;;5074613;27;21031;-62
2021/12/10 06:28:03;;;;;;;2.47;2.28;;;22.20;33.20;;;;;;5078582;27;20047;-65
2021/12/10 06:30:35;;;;;;;2.80;2.47;;;22.20;33.10;;;;;;5073908;27;20463;-65
2021/12/10 06:33:07;;;;;;;3.17;2.88;;;22.20;33.20;;;;;;5063994;27;20505;-62
2021/12/10 06:35:35;;;;;;;2.85;2.65;;;22.20;33.30;;;;;;5052278;28;20051;-65
2021/12/10 06:38:04;;;;;;;3.42;3.13;;;22.20;33.40;;;;;;5071322;28;20608;-62
2021/12/10 06:40:35;;;;;;;2.78;2.58;;;22.30;33.30;;;;;;5074920;27;20130;-61
2021/12/10 06:43:02;;;;;;;;;;;22.30;33.40;;;;;;5058420;27;20043;-61
2021/12/10 06:45:32;;;;;;;5.45;2.75;;;22.40;33.20;;;;;;5070377;27;20019;-66
2021/12/10 06:48:01;;;;;;;4.88;2.75;;;22.40;33.10;;;;;;5065128;27;20062;-62
2021/12/10 06:50:33;;;;;;;5.53;3.03;;;22.40;33.00;;;;;;5063026;27;20069;-62
2021/12/10 06:53:01;;;;;;;2.70;2.50;;;22.50;33.10;;;;;;5038952;27;20114;-61
2021/12/10 06:55:30;;;;;;;6.82;3.20;;;22.60;33.60;;;;;;5067538;27;20083;-63
2021/12/10 06:57:58;;;;;;;4.93;3.30;;;22.70;33.60;;;;;;5064276;27;20143;-64
2021/12/10 07:00:43;;;;;;;4.13;3.20;;;22.70;33.60;;;;;;5067153;27;20050;-63
2021/12/10 07:03:14;;;;;;;3.67;3.30;;;22.80;33.40;;;;;;5055754;28;20068;-65
2021/12/10 07:05:41;;;;;;;3.80;3.35;;;22.90;33.40;;;;;;5069306;27;20105;-63
2021/12/10 07:08:10;;;;;;;5.78;4.40;;;22.90;33.10;;;;;;5070271;27;20270;-64
2021/12/10 07:10:37;;;;;;;7.10;4.97;;;23.00;33.20;;;;;;5063916;28;20047;-62
2021/12/10 07:13:06;;;;;;;9.27;4.82;;;23.00;32.80;;;;;;5048680;27;20173;-63
2021/12/10 07:15:38;;;;;;;5.45;4.55;;;23.10;32.70;;;;;;5043572;27;20788;-61
2021/12/10 07:18:07;;;;;;;7.57;4.50;;;23.20;33.10;;;;;;5071421;28;20047;-63
2021/12/10 07:20:34;;;;;;;5.03;4.53;;;23.30;33.50;;;;;;5052039;28;20146;-62
2021/12/10 07:23:02;;;;;;;7.70;4.50;;;23.40;33.70;;;;;;5053573;28;20105;-60
2021/12/10 07:25:29;;;;;;;5.00;4.30;;;23.40;33.60;;;;;;5063068;28;20062;-63
2021/12/10 07:27:57;;;;;;;6.05;5.10;;;23.50;33.60;;;;;;5066167;27;20496;-62
2021/12/10 07:30:25;;;;;;;5.45;4.30;;;23.60;33.60;;;;;;5066705;27;20052;-63
2021/12/10 07:32:53;;;;;;;4.95;4.45;;;23.60;33.40;;;;;;5055628;28;20067;-64
2021/12/10 07:35:21;;;;;;;6.68;4.70;;;23.70;33.40;;;;;;5067371;28;20058;-62
2021/12/10 07:37:49;;;;;;;6.15;5.35;;;23.80;33.30;;;;;;5067634;27;20056;-62
2021/12/10 07:40:20;;;;;;;5.82;4.40;;;23.80;33.30;;;;;;5071474;27;21626;-63
2021/12/10 07:42:48;;;;;;;6.13;5.30;;;23.90;33.10;;;;;;5057076;27;20051;-63
2021/12/10 07:45:17;;;;;;;9.02;4.22;;;23.90;32.90;;;;;;5069977;28;20425;-63
2021/12/10 07:47:46;;;;;;;5.05;4.55;;;24.00;32.80;;;;;;5063478;28;21070;-64
2021/12/10 07:50:17;;;;;;;5.13;4.10;;;24.10;32.70;;;;;;5067727;28;20413;-61
2021/12/10 07:52:45;;;;;;;5.30;3.97;;;24.10;32.50;;;;;;5054954;28;20055;-61
2021/12/10 07:55:15;;;;;;;4.93;4.25;;;24.20;32.50;;;;;;5070217;28;20127;-62
2021/12/10 07:57:43;;;;;;;6.28;4.38;;;24.30;32.50;;;;;;5065596;28;20076;-62
2021/12/10 08:00:14;;;;;;;4.15;3.75;;;24.30;32.40;;;;;;5074936;28;20051;-64
2021/12/10 08:02:42;;;;;;;5.00;4.28;;;24.40;32.20;;;;;;5059579;28;20051;-61
2021/12/10 08:05:12;;;;;;;4.05;3.58;;;24.50;32.10;;;;;;5067789;28;20102;-64
2021/12/10 08:07:39;;;;;;;4.97;4.07;;;24.50;32.20;;;;;;5072733;28;20503;-64
2021/12/10 08:10:09;;;;;;;4.78;4.28;;;24.60;31.90;;;;;;5072799;28;20699;-61
2021/12/10 08:12:36;;;;;;;4.00;3.55;;;24.70;31.60;;;;;;5060267;28;20130;-64
2021/12/10 08:15:05;;;;;;;3.67;3.38;;;24.70;31.20;;;;;;5050752;28;20059;-62
2021/12/10 08:17:33;;;;;;;5.65;4.15;;;24.80;31.00;;;;;;5067169;28;20055;-62
2021/12/10 08:20:01;;;;;;;4.10;3.70;;;24.80;30.90;;;;;;5072451;28;20051;-61
2021/12/10 08:22:29;;;;;;;4.53;4.05;;;24.90;31.00;;;;;;5060047;28;20159;-62
2021/12/10 08:24:56;;;;;;;5.78;4.05;;;24.90;30.90;;;;;;5068351;28;20051;-61
2021/12/10 08:27:23;;;;;;;4.47;3.95;;;25.00;30.90;;;;;;5066562;28;20048;-61
2021/12/10 08:29:51;;;;;;;4.10;3.60;;;25.00;30.90;;;;;;5065712;28;20240;-61
2021/12/10 08:32:21;;;;;;;5.03;3.60;;;25.10;31.10;;;;;;5036557;28;20063;-61
2021/12/10 08:34:48;;;;;;;4.25;3.85;;;25.10;31.10;;;;;;5064460;28;20047;-62
2021/12/10 08:37:17;;;;;;;4.20;3.80;;;25.20;31.00;;;;;;5075131;27;20407;-61
2021/12/10 08:39:44;;;;;;;4.13;3.72;;;25.20;30.90;;;;;;5077353;27;20060;-65
2021/12/10 08:42:13;;;;;;;6.97;3.75;;;25.30;30.90;;;;;;5064250;27;20048;-61
2021/12/10 08:44:42;;;;;;;7.97;3.50;;;25.30;30.70;;;;;;5072317;27;21416;-60
2021/12/10 08:47:12;;;;;;;3.92;3.13;;;25.30;30.60;;;;;;5058667;28;20051;-60
2021/12/10 08:49:41;;;;;;;3.65;3.35;;;25.40;30.80;;;;;;5071721;28;20048;-61
2021/12/10 08:52:10;;;;;;;3.83;3.35;;;25.40;30.80;;;;;;5062244;27;20079;-62
2021/12/10 08:54:38;;;;;;;6.78;3.50;;;25.40;30.80;;;;;;5071818;27;20080;-63
2021/12/10 08:57:11;;;;;;;3.85;3.55;;;25.40;31.00;;;;;;5073928;27;20082;-62
2021/12/10 08:59:40;;;;;;;4.72;3.90;;;25.30;30.90;;;;;;5075960;27;21659;-67
2021/12/10 09:02:13;;;;;;;4.53;3.83;;;25.30;31.10;;;;;;5060332;27;20082;-64
2021/12/10 09:04:41;;;;;;;3.50;3.20;;;25.30;31.10;;;;;;5068912;27;20075;-67
2021/12/10 09:07:12;;;;;;;4.22;3.00;;;25.30;31.10;;;;;;5053412;28;20051;-69
2021/12/10 09:09:42;;;;;;;3.85;3.28;;;25.30;31.20;;;;;;5072609;28;20651;-69
2021/12/10 09:12:22;;;;;;;11.63;4.80;;;25.30;31.20;;;;;;5057816;27;20047;-67
2021/12/10 09:14:53;;;;;;;4.97;4.22;;;25.30;31.20;;;;;;5049070;28;20063;-62
2021/12/10 09:17:26;;;;;;;5.43;3.83;;;25.30;31.40;;;;;;5053166;28;20048;-63
2021/12/10 09:20:02;;;;;;;12.57;4.55;;;25.30;31.60;;;;;;5070164;27;20147;-66
2021/12/10 09:22:34;;;;;;;12.65;3.80;;;25.30;31.80;;;;;;5041300;27;20273;-64
2021/12/10 09:25:03;;;;;;;10.57;4.45;;;25.30;32.00;;;;;;5047972;27;20675;-66
2021/12/10 09:27:32;;;;;;;16.92;4.07;;;25.40;32.50;;;;;;5056862;27;20055;-64
2021/12/10 09:30:01;;;;;;;8.93;3.40;;;25.40;32.90;;;;;;5084148;27;20409;-69
2021/12/10 09:32:37;;;;;;;11.15;4.28;;;25.40;32.90;;;;;;5071340;28;20273;-67
2021/12/10 09:35:07;;;;;;;4.80;3.50;;;25.40;32.70;;;;;;5081422;27;20047;-69
2021/12/10 09:37:37;;;;;;;4.28;3.28;;;25.40;32.60;;;;;;5078797;27;20146;-63
2021/12/10 09:40:10;;;;;;;3.67;3.20;;;25.40;32.60;;;;;;5064505;28;20490;-68
2021/12/10 09:42:45;;;;;;;8.57;3.17;;;25.40;32.50;;;;;;5081055;27;20105;-67
2021/12/10 09:45:15;;;;;;;3.40;2.92;;;25.40;32.40;;;;;;5081490;27;20078;-68
2021/12/10 09:47:43;;;;;;;;;;;25.40;32.40;;;;;;5066851;28;20117;-66
2021/12/10 09:50:12;;;;;;;3.45;2.65;;;25.40;32.40;;;;;;5099122;27;19935;-68
2021/12/10 09:52:40;;;;;;;5.40;3.53;;;25.40;32.40;;;;;;5054552;27;20050;-66
2021/12/10 09:55:11;;;;;;;6.38;2.97;;;25.40;32.40;;;;;;5075380;28;20052;-67
2021/12/10 09:57:39;;;;;;;3.83;3.30;;;25.40;32.30;;;;;;5082166;28;20055;-67
2021/12/10 10:00:42;;;;;;;3.45;2.78;;;25.40;32.10;;;;;;5102333;27;20074;-66
2021/12/10 10:03:13;;;;;;;5.18;3.10;;;25.40;32.00;;;;;;5070561;28;20055;-67
2021/12/10 10:05:43;;;;;;;3.00;2.80;;;25.40;31.90;;;;;;5094884;27;20040;-68
2021/12/10 10:08:15;;;;;;;4.63;2.83;;;25.40;31.90;;;;;;5077232;28;20127;-67
2021/12/10 10:10:48;;;;;;;3.72;3.42;;;25.40;31.80;;;;;;5103958;27;20073;-66
2021/12/10 10:13:19;;;;;;;3.33;2.92;;;25.40;31.90;;;;;;5080989;27;20056;-67
2021/12/10 10:15:49;;;;;;;6.15;3.50;;;25.40;31.90;;;;;;5066239;28;20068;-66
2021/12/10 10:18:20;;;;;;;8.98;2.78;;;25.40;32.10;;;;;;5102280;27;20043;-64
2021/12/10 10:20:54;;;;;;;6.68;3.70;;;25.40;32.30;;;;;;5068769;28;20127;-71
2021/12/10 10:23:23;;;;;;;3.45;2.83;;;25.40;32.50;;;;;;5056306;27;20055;-68
2021/12/10 10:25:52;;;;;;;6.65;3.13;;;25.40;32.50;;;;;;5102449;27;20173;-66
2021/12/10 10:28:23;;;;;;;3.25;2.95;;;25.40;32.50;;;;;;5079442;27;20051;-67
2021/12/10 10:30:59;;;;;;;4.53;2.85;;;25.40;32.30;;;;;;5077790;28;20043;-65
2021/12/10 10:33:30;;;;;;;3.15;2.85;;;25.40;32.30;;;;;;5058639;28;20051;-65
2021/12/10 10:36:02;;;;;;;6.80;3.00;;;25.40;32.10;;;;;;5068933;28;20062;-64
2021/12/10 10:38:30;;;;;;;3.13;2.83;;;25.40;32.00;;;;;;5084881;28;20459;-65
2021/12/10 10:41:02;;;;;;;3.78;3.00;;;25.40;31.90;;;;;;5080636;28;20091;-64
2021/12/10 10:43:30;;;;;;;5.00;2.95;;;25.40;31.90;;;;;;5091359;27;20047;-66
2021/12/10 10:45:58;;;;;;;4.57;3.08;;;25.40;31.90;;;;;;5082088;28;20476;-64
2021/12/10 10:48:26;;;;;;;3.25;2.60;;;25.40;31.90;;;;;;5099319;27;20388;-62
2021/12/10 10:51:01;;;;;;;3.40;2.80;;;25.50;31.90;;;;;;5101590;27;20093;-62
2021/12/10 10:53:33;;;;;;;4.22;3.15;;;25.50;31.80;;;;;;5083533;28;20043;-65
2021/12/10 10:56:06;;;;;;;3.13;2.83;;;25.50;31.80;;;;;;5093838;28;20050;-65
2021/12/10 10:58:41;;;;;;;3.08;2.83;;;25.50;31.70;;;;;;5099208;27;20050;-64
2021/12/10 11:01:35;;;;;;;2.95;2.75;;;25.50;31.70;;;;;;5094603;27;20118;-63
2021/12/10 11:04:29;;;;;;;4.47;3.15;;;25.50;31.70;;;;;;5092808;27;20059;-62
2021/12/10 11:07:15;;;;;;;3.13;2.88;;;25.50;31.60;;;;;;5087167;28;20047;-62
2021/12/10 11:09:54;;;;;;;5.13;2.92;;;25.50;31.40;;;;;;5097973;28;20110;-65
2021/12/10 11:12:31;;;;;;;3.13;2.92;;;25.40;31.30;;;;;;5068875;27;20047;-63
2021/12/10 11:15:01;;;;;;;3.22;2.92;;;25.40;31.20;;;;;;5073448;28;20493;-67
2021/12/10 11:17:33;;;;;;;3.40;3.10;;;25.40;31.10;;;;;;5083615;27;20075;-64
2021/12/10 11:20:13;;;;;;;4.22;2.92;;;25.40;31.10;;;;;;5102065;27;20047;-64
2021/12/10 11:22:59;;;;;;;3.10;2.80;;;25.40;31.30;;;;;;5071705;27;20059;-67
2021/12/10 11:25:35;;;;;;;3.35;2.72;;;25.40;31.30;;;;;;5097600;27;20063;-64
2021/12/10 11:28:07;;;;;;;3.95;3.10;;;25.40;31.20;;;;;;5057322;27;20079;-64
2021/12/10 11:30:45;;;;;;;3.33;2.90;;;25.40;31.20;;;;;;5065853;28;20485;-65
2021/12/10 11:33:18;;;;;;;3.00;2.78;;;25.40;31.10;;;;;;5070481;28;20495;-65
2021/12/10 11:35:50;;;;;;;4.78;3.47;;;25.40;31.10;;;;;;5082158;28;20047;-67
2021/12/10 11:38:25;;;;;;;4.22;3.03;;;25.40;31.00;;;;;;5093764;28;20475;-66
2021/12/10 11:40:59;;;;;;;3.55;3.25;;;25.40;30.90;;;;;;5097248;27;20055;-67
2021/12/10 11:43:54;;;;;;;3.72;3.42;;;25.40;31.00;;;;;;5082013;28;20116;-67
2021/12/10 11:46:51;;;;;;;4.97;3.40;;;25.40;30.90;;;;;;5095783;28;20055;-64
2021/12/10 11:49:28;;;;;;;3.83;2.92;;;25.40;31.00;;;;;;5072136;28;20036;-64
2021/12/10 11:52:09;;;;;;;3.55;3.20;;;25.40;31.00;;;;;;5068513;28;20052;-64
2021/12/10 11:54:51;;;;;;;3.63;3.33;;;25.40;30.90;;;;;;5057085;28;20047;-66
2021/12/10 11:57:25;;;;;;;3.50;3.20;;;25.40;30.90;;;;;;5096869;28;20055;-65
2021/12/10 12:00:00;;;;;;;3.80;3.40;;;25.30;30.90;;;;;;5097691;28;20571;-65
2021/12/10 12:02:35;;;;;;;3.55;3.10;;;25.40;31.00;;;;;;5085749;28;20040;-65
2021/12/10 12:05:12;;;;;;;3.95;3.50;;;25.30;31.00;;;;;;5087224;28;20108;-65
2021/12/10 12:07:45;;;;;;;3.40;3.08;;;25.30;30.90;;;;;;5095163;28;20044;-66
2021/12/10 12:10:25;;;;;;;3.58;3.22;;;25.30;30.90;;;;;;5094029;28;20055;-66
2021/12/10 12:13:02;;;;;;;4.00;3.55;;;25.30;31.10;;;;;;5088486;28;20058;-67
2021/12/10 12:15:35;;;;;;;4.38;3.50;;;25.30;31.90;;;;;;5099209;27;20051;-66
2021/12/10 12:18:16;;;;;;;4.45;2.85;;;25.30;31.60;;;;;;5097489;27;20109;-65
2021/12/10 12:20:52;;;;;;;5.65;2.95;;;25.30;31.50;;;;;;5099981;27;20078;-66
2021/12/10 12:26:26;;;;;;;3.75;3.35;;;25.30;31.50;;;;;;5098325;27;20059;-61
2021/12/10 12:29:15;;;;;;;3.80;3.50;;;25.30;31.50;;;;;;5098444;28;20126;-69
2021/12/10 12:31:47;;;;;;;3.90;2.95;;;25.30;31.60;;;;;;5088831;28;20633;-62
2021/12/10 12:34:23;;;;;;;4.22;3.25;;;25.30;31.70;;;;;;5068815;28;20121;-65
2021/12/10 12:37:01;;;;;;;3.60;3.30;;;25.30;31.30;;;;;;5098486;28;20416;-67
2021/12/10 12:39:55;;;;;;;3.53;3.22;;;25.30;31.10;;;;;;5097578;27;20507;-66
2021/12/10 12:42:40;;;;;;;4.25;3.28;;;25.20;31.20;;;;;;5089115;27;20131;-66
2021/12/10 12:45:17;;;;;;;3.35;3.05;;;25.20;31.30;;;;;;5094271;28;20085;-67
2021/12/10 12:48:10;;;;;;;3.63;3.10;;;25.20;31.50;;;;;;5079491;28;20046;-66
2021/12/10 12:50:46;;;;;;;4.50;3.20;;;25.20;31.70;;;;;;5098720;27;20511;-66
2021/12/10 12:53:25;;;;;;;5.07;3.22;;;25.30;31.80;;;;;;5081629;27;20047;-65
2021/12/10 12:55:58;;;;;;;4.13;3.20;;;25.20;31.80;;;;;;5098757;27;20512;-64
2021/12/10 12:58:58;;;;;;;3.88;3.58;;;25.20;31.70;;;;;;5096647;27;20529;-65
2021/12/10 13:01:35;;;;;;;3.38;3.08;;;25.20;31.80;;;;;;5090711;27;20051;-69
2021/12/10 13:04:13;;;;;;;5.88;3.53;;;25.20;31.90;;;;;;5085503;27;20040;-64
2021/12/10 13:07:11;;;;;;;4.20;3.47;;;25.20;31.90;;;;;;5088044;28;20044;-61
2021/12/10 13:09:48;;;;;;;3.58;3.28;;;25.30;31.90;;;;;;5091518;28;20783;-61
2021/12/10 13:12:37;;;;;;;4.20;3.80;;;25.20;31.70;;;;;;5091656;27;20131;-64
2021/12/10 13:15:10;;;;;;;3.92;3.50;;;25.20;31.40;;;;;;5099064;27;20071;-63
2021/12/10 13:17:45;;;;;;;4.00;3.40;;;25.10;31.30;;;;;;5109969;27;20044;-62
2021/12/10 13:20:19;;;;;;;4.57;3.28;;;25.10;31.20;;;;;;5104186;28;20082;-62